createdAt,value
2022-09-10T00:01:00.120Z,53.99
2022-09-10T00:03:04.254Z,52.89
2022-09-10T00:05:13.162Z,52.13
2022-09-10T00:07:19.226Z,53.52
2022-09-10T00:09:22.881Z,54.40
2022-09-10T00:11:27.614Z,54.29
2022-09-10T00:13:31.564Z,57.94
2022-09-10T00:15:46.696Z,57.66
2022-09-10T00:17:50.587Z,56.95
2022-09-10T00:19:56.181Z,57.03
2022-09-10T00:22:00.252Z,56.86
2022-09-10T00:24:06.473Z,58.25
2022-09-10T00:26:19.242Z,59.00
2022-09-10T00:28:23.617Z,59.25
2022-09-10T00:30:28.126Z,59.62
2022-09-10T00:32:31.964Z,60.41
2022-09-10T00:34:35.432Z,62.57
2022-09-10T00:36:43.099Z,61.70
2022-09-10T00:38:47.808Z,63.87
2022-09-10T00:40:51.630Z,63.20
2022-09-10T00:42:55.655Z,65.63
2022-09-10T00:45:01.131Z,65.27
2022-09-10T00:47:05.885Z,66.67
2022-09-10T00:49:33.009Z,67.32
2022-09-10T00:51:38.329Z,68.50
2022-09-10T00:53:43.300Z,69.36
2022-09-10T00:55:51.511Z,69.52
2022-09-10T00:57:58.289Z,70.02
2022-09-10T01:00:05.146Z,69.66
2022-09-10T01:02:09.940Z,69.87
2022-09-10T01:04:13.679Z,71.08
2022-09-10T01:06:18.069Z,70.73
2022-09-10T01:08:21.662Z,71.68
2022-09-10T01:10:29.714Z,71.62
2022-09-10T01:12:36.010Z,72.91
2022-09-10T01:14:40.205Z,72.86
2022-09-10T01:17:11.206Z,72.95
2022-09-10T01:19:18.030Z,72.62
2022-09-10T01:21:31.977Z,74.19
2022-09-10T01:23:48.717Z,74.20
2022-09-10T01:26:05.305Z,75.33
2022-09-10T01:28:14.639Z,74.93
2022-09-10T01:30:22.705Z,74.74
2022-09-10T01:32:38.995Z,76.08
2022-09-10T01:34:48.333Z,76.18
2022-09-10T01:36:55.988Z,76.27
2022-09-10T01:38:59.633Z,75.54
2022-09-10T01:41:03.635Z,76.46
2022-09-10T01:43:12.854Z,76.12
2022-09-10T01:45:25.650Z,76.96
2022-09-10T01:47:38.280Z,76.74
2022-09-10T01:49:50.509Z,78.51
2022-09-10T01:52:06.173Z,78.75
2022-09-10T01:54:18.243Z,78.35
2022-09-10T01:56:42.851Z,78.43
2022-09-10T01:58:48.247Z,78.66
2022-09-10T02:01:12.677Z,78.75
2022-09-10T02:03:19.387Z,78.77
2022-09-10T02:05:25.318Z,78.66
2022-09-10T02:07:33.072Z,79.61
2022-09-10T02:09:37.261Z,79.47
2022-09-10T02:11:50.950Z,78.12
2022-09-10T02:14:15.321Z,77.89
2022-09-10T02:16:43.708Z,78.21
2022-09-10T02:18:50.177Z,77.81
2022-09-10T02:20:56.771Z,78.02
2022-09-10T02:23:01.519Z,78.86
2022-09-10T02:25:07.357Z,79.19
2022-09-10T02:27:12.709Z,78.81
2022-09-10T02:29:18.257Z,78.97
2022-09-10T02:31:22.611Z,79.63
2022-09-10T02:33:26.802Z,80.53
2022-09-10T02:35:33.333Z,80.90
2022-09-10T02:37:37.373Z,81.18
2022-09-10T02:39:41.181Z,81.49
2022-09-10T02:41:44.965Z,81.85
2022-09-10T02:43:48.941Z,81.02
2022-09-10T02:45:52.653Z,81.31
2022-09-10T02:47:56.471Z,82.22
2022-09-10T02:50:03.188Z,81.79
2022-09-10T02:52:07.813Z,81.85
2022-09-10T02:54:13.149Z,82.43
2022-09-10T02:56:16.967Z,82.73
2022-09-10T02:58:20.999Z,83.71
2022-09-10T03:00:25.334Z,83.67
2022-09-10T03:02:30.404Z,84.06
2022-09-10T03:04:34.449Z,84.32
2022-09-10T03:06:39.239Z,84.16
2022-09-10T03:08:43.439Z,84.88
2022-09-10T03:10:48.932Z,84.89
2022-09-10T03:12:53.541Z,85.91
2022-09-10T03:14:59.011Z,84.49
2022-09-10T03:17:04.153Z,85.21
2022-09-10T03:19:07.785Z,85.56
2022-09-10T03:21:14.271Z,86.21
2022-09-10T03:23:17.851Z,85.95
2022-09-10T03:25:26.619Z,86.27
2022-09-10T03:27:34.068Z,85.65
2022-09-10T03:29:38.069Z,86.85
2022-09-10T03:31:41.533Z,86.71
2022-09-10T03:33:47.605Z,87.26
2022-09-10T03:35:54.001Z,87.81
2022-09-10T03:38:03.447Z,87.74
2022-09-10T03:40:08.801Z,88.17
2022-09-10T03:42:13.346Z,88.45
2022-09-10T03:44:18.113Z,91.11
2022-09-10T03:46:23.998Z,90.12
2022-09-10T03:48:27.696Z,90.02
2022-09-10T03:50:32.152Z,89.95
2022-09-10T03:52:38.295Z,90.06
2022-09-10T03:54:43.463Z,90.41
2022-09-10T03:56:47.238Z,91.71
2022-09-10T03:58:52.386Z,92.35
2022-09-10T04:00:57.992Z,92.44
2022-09-10T04:03:02.380Z,90.63
2022-09-10T04:05:07.007Z,91.65
2022-09-10T04:07:11.868Z,91.84
2022-09-10T04:09:16.141Z,90.99
2022-09-10T04:11:28.519Z,90.55
2022-09-10T04:13:34.376Z,90.23
2022-09-10T04:15:40.365Z,90.49
2022-09-10T04:17:44.112Z,89.90
2022-09-10T04:19:52.210Z,89.53
2022-09-10T04:21:56.389Z,89.07
2022-09-10T04:24:01.765Z,88.32
2022-09-10T04:26:15.688Z,88.83
2022-09-10T04:28:20.686Z,88.70
2022-09-10T04:30:27.147Z,87.83
2022-09-10T04:32:31.137Z,88.43
2022-09-10T04:34:34.963Z,87.50
2022-09-10T04:36:39.486Z,86.82
2022-09-10T04:38:45.758Z,86.70
2022-09-10T04:40:56.169Z,86.14
2022-09-10T04:43:00.012Z,86.28
2022-09-10T04:45:03.799Z,86.00
2022-09-10T04:47:08.129Z,85.69
2022-09-10T04:49:15.936Z,86.47
2022-09-10T04:51:19.886Z,86.32
2022-09-10T04:53:26.564Z,87.30
2022-09-10T04:55:33.213Z,86.78
2022-09-10T04:57:37.239Z,86.94
2022-09-10T04:59:43.844Z,87.07
2022-09-10T05:01:51.440Z,86.79
2022-09-10T05:03:55.541Z,87.13
2022-09-10T05:06:00.413Z,87.64
2022-09-10T05:08:09.829Z,88.00
2022-09-10T05:10:16.402Z,87.79
2022-09-10T05:12:23.934Z,87.95
2022-09-10T05:14:30.633Z,88.72
2022-09-10T05:16:34.953Z,89.56
2022-09-10T05:18:41.352Z,88.58
2022-09-10T05:20:46.191Z,88.76
2022-09-10T05:22:50.645Z,89.40
2022-09-10T05:24:56.364Z,89.92
2022-09-10T05:27:00.594Z,90.26
2022-09-10T05:29:04.190Z,90.39
2022-09-10T05:31:09.895Z,90.35
2022-09-10T05:33:14.851Z,91.62
2022-09-10T05:35:19.203Z,91.86
2022-09-10T05:37:23.719Z,91.75
2022-09-10T05:39:27.615Z,91.17
2022-09-10T05:41:32.182Z,92.53
2022-09-10T05:43:37.528Z,92.73
2022-09-10T05:45:41.121Z,93.26
2022-09-10T05:47:45.251Z,93.35
2022-09-10T05:49:53.577Z,93.55
2022-09-10T05:51:57.749Z,93.70
2022-09-10T05:54:06.960Z,94.75
2022-09-10T05:56:10.888Z,95.70
2022-09-10T05:58:15.496Z,96.33
2022-09-10T06:00:20.433Z,97.14
2022-09-10T06:02:34.565Z,97.70
2022-09-10T06:04:38.424Z,98.60
2022-09-10T06:06:42.161Z,99.29
2022-09-10T06:08:51.978Z,99.33
2022-09-10T06:11:13.296Z,100.00
2022-09-10T06:13:21.812Z,100.00
2022-09-10T06:15:27.158Z,100.00
2022-09-10T06:17:30.993Z,100.00
2022-09-10T06:19:34.905Z,100.00
2022-09-10T06:21:41.616Z,100.00
2022-09-10T06:23:45.913Z,100.00
2022-09-10T06:26:01.312Z,100.00
2022-09-10T06:28:05.338Z,100.00
2022-09-10T06:30:09.500Z,100.00
2022-09-10T06:32:16.584Z,100.00
2022-09-10T06:34:20.577Z,100.00
2022-09-10T06:36:25.111Z,100.00
2022-09-10T06:38:34.169Z,100.00
2022-09-10T06:40:39.313Z,100.00
2022-09-10T06:42:43.340Z,100.00
2022-09-10T06:44:52.251Z,100.00
2022-09-10T06:49:39.414Z,100.00
2022-09-10T06:51:43.497Z,100.00
2022-09-10T06:53:48.596Z,100.00
2022-09-10T06:55:56.423Z,100.00
2022-09-10T06:58:03.231Z,100.00
2022-09-10T07:00:07.434Z,100.00
2022-09-10T07:02:12.425Z,100.00
2022-09-10T07:04:16.861Z,100.00
2022-09-10T07:06:20.991Z,100.00
2022-09-10T07:08:28.379Z,100.00
2022-09-10T07:10:33.850Z,100.00
2022-09-10T07:12:38.325Z,100.00
2022-09-10T07:14:44.153Z,100.00
2022-09-10T07:16:48.628Z,100.00
2022-09-10T07:18:53.537Z,100.00
2022-09-10T07:21:10.171Z,100.00
2022-09-10T07:23:20.053Z,100.00
2022-09-10T07:25:26.409Z,100.00
2022-09-10T07:27:36.353Z,100.00
2022-09-10T07:29:40.315Z,100.00
2022-09-10T07:31:49.773Z,100.00
2022-09-10T07:34:02.067Z,100.00
2022-09-10T07:36:07.742Z,100.00
2022-09-10T07:38:21.710Z,100.00
2022-09-10T07:40:26.169Z,100.00
2022-09-10T07:42:30.365Z,100.00
2022-09-10T07:44:34.305Z,100.00
2022-09-10T07:46:39.097Z,100.00
2022-09-10T07:48:45.886Z,100.00
2022-09-10T07:50:49.502Z,100.00
2022-09-10T07:52:57.176Z,100.00
2022-09-10T07:55:02.027Z,100.00
2022-09-10T07:57:06.262Z,100.00
2022-09-10T07:59:11.354Z,100.00
2022-09-10T08:01:24.569Z,100.00
2022-09-10T08:03:29.105Z,100.00
2022-09-10T08:05:33.365Z,100.00
2022-09-10T08:07:41.849Z,100.00
2022-09-10T08:09:46.912Z,100.00
2022-09-10T08:11:53.144Z,100.00
2022-09-10T08:14:02.790Z,100.00
2022-09-10T08:16:16.542Z,100.00
2022-09-10T08:18:20.770Z,100.00
2022-09-10T08:20:27.671Z,100.00
2022-09-10T08:22:32.687Z,100.00
2022-09-10T08:24:36.279Z,100.00
2022-09-10T08:26:41.334Z,100.00
2022-09-10T08:28:45.350Z,100.00
2022-09-10T08:31:03.008Z,100.00
2022-09-10T08:33:09.481Z,100.00
2022-09-10T08:35:18.674Z,100.00
2022-09-10T08:37:22.080Z,100.00
2022-09-10T08:39:26.787Z,100.00
2022-09-10T08:41:40.634Z,100.00
2022-09-10T08:44:05.070Z,100.00
2022-09-10T08:46:17.840Z,100.00
2022-09-10T08:48:27.169Z,100.00
2022-09-10T08:50:37.390Z,100.00
2022-09-10T08:52:49.911Z,100.00
2022-09-10T08:55:00.313Z,100.00
2022-09-10T08:57:04.705Z,100.00
2022-09-10T08:59:14.771Z,100.00
2022-09-10T09:01:41.439Z,100.00
2022-09-10T09:03:46.898Z,100.00
2022-09-10T09:06:03.952Z,100.00
2022-09-10T09:08:16.160Z,100.00
2022-09-10T09:10:25.756Z,100.00
2022-09-10T09:12:32.012Z,100.00
2022-09-10T09:14:53.698Z,100.00
2022-09-10T09:17:17.852Z,100.00
2022-09-10T09:19:50.355Z,100.00
2022-09-10T09:21:55.573Z,100.00
2022-09-10T09:24:13.450Z,100.00
2022-09-10T09:26:35.805Z,100.00
2022-09-10T09:29:00.325Z,100.00
2022-09-10T09:31:09.308Z,100.00
2022-09-10T09:33:17.434Z,100.00
2022-09-10T09:35:29.505Z,100.00
2022-09-10T09:37:35.547Z,100.00
2022-09-10T09:39:39.877Z,100.00
2022-09-10T09:41:46.625Z,100.00
2022-09-10T09:43:53.469Z,100.00
2022-09-10T09:45:59.026Z,100.00
2022-09-10T09:48:08.454Z,100.00
2022-09-10T09:50:14.108Z,100.00
2022-09-10T09:52:23.244Z,100.00
2022-09-10T09:56:55.613Z,100.00
2022-09-10T09:59:11.852Z,100.00
2022-09-10T10:01:22.135Z,100.00
2022-09-10T10:03:26.830Z,100.00
2022-09-10T10:05:30.536Z,100.00
2022-09-10T10:07:35.726Z,100.00
2022-09-10T10:09:44.517Z,100.00
2022-09-10T10:11:57.259Z,100.00
2022-09-10T10:14:12.679Z,100.00
2022-09-10T10:16:23.871Z,100.00
2022-09-10T10:18:34.206Z,100.00
2022-09-10T10:20:38.128Z,100.00
2022-09-10T10:22:50.405Z,100.00
2022-09-10T10:24:55.485Z,100.00
2022-09-10T10:27:00.172Z,100.00
2022-09-10T10:29:29.714Z,100.00
2022-09-10T10:31:38.433Z,100.00
2022-09-10T10:34:02.611Z,100.00
2022-09-10T10:36:20.648Z,100.00
2022-09-10T10:38:30.620Z,100.00
2022-09-10T10:40:44.444Z,100.00
2022-09-10T10:42:50.356Z,100.00
2022-09-10T10:45:03.894Z,100.00
2022-09-10T10:47:07.305Z,100.00
2022-09-10T10:49:37.503Z,100.00
2022-09-10T10:51:47.115Z,100.00
2022-09-10T10:54:09.407Z,100.00
2022-09-10T10:56:13.090Z,100.00
2022-09-10T10:58:23.031Z,100.00
2022-09-10T11:00:27.498Z,100.00
2022-09-10T11:02:40.251Z,100.00
2022-09-10T11:04:44.457Z,100.00
2022-09-10T11:06:51.984Z,100.00
2022-09-10T11:08:58.944Z,100.00
2022-09-10T11:11:14.844Z,100.00
2022-09-10T11:13:37.240Z,100.00
2022-09-10T11:16:03.617Z,100.00
2022-09-10T11:18:28.428Z,100.00
2022-09-10T11:20:35.368Z,100.00
2022-09-10T11:22:46.249Z,100.00
2022-09-10T11:24:56.237Z,100.00
2022-09-10T11:27:11.740Z,100.00
2022-09-10T11:29:33.537Z,100.00
2022-09-10T11:31:41.736Z,100.00
2022-09-10T11:34:06.210Z,100.00
2022-09-10T11:36:13.208Z,100.00
2022-09-10T11:38:24.081Z,100.00
2022-09-10T11:40:27.714Z,100.00
2022-09-10T11:42:38.476Z,100.00
2022-09-10T11:44:50.122Z,100.00
2022-09-10T11:47:04.151Z,100.00
2022-09-10T11:49:07.878Z,100.00
2022-09-10T11:51:25.556Z,100.00
2022-09-10T11:53:31.411Z,100.00
2022-09-10T11:55:46.439Z,100.00
2022-09-10T11:58:12.685Z,100.00
2022-09-10T12:00:20.180Z,100.00
2022-09-10T12:02:32.246Z,100.00
2022-09-10T12:04:44.633Z,100.00
2022-09-10T12:07:00.635Z,100.00
2022-09-10T12:09:19.519Z,100.00
2022-09-10T12:11:38.528Z,100.00
2022-09-10T12:13:46.804Z,100.00
2022-09-10T12:15:53.003Z,100.00
2022-09-10T12:18:05.360Z,100.00
2022-09-10T12:20:15.098Z,100.00
2022-09-10T12:22:27.886Z,100.00
2022-09-10T12:24:32.571Z,100.00
2022-09-10T12:26:44.320Z,100.00
2022-09-10T12:28:51.166Z,100.00
2022-09-10T12:31:00.319Z,100.00
2022-09-10T12:33:25.777Z,100.00
2022-09-10T12:35:39.140Z,100.00
2022-09-10T12:37:42.600Z,100.00
2022-09-10T12:39:46.366Z,100.00
2022-09-10T12:41:51.194Z,100.00
2022-09-10T12:43:58.808Z,100.00
2022-09-10T12:46:05.540Z,100.00
2022-09-10T12:48:15.289Z,100.00
2022-09-10T12:50:31.129Z,100.00
2022-09-10T12:52:35.959Z,100.00
2022-09-10T12:54:45.481Z,100.00
2022-09-10T12:56:58.055Z,100.00
2022-09-10T12:59:01.964Z,100.00
2022-09-10T13:01:25.990Z,100.00
2022-09-10T13:03:30.382Z,100.00
2022-09-10T13:05:49.423Z,100.00
2022-09-10T13:08:22.392Z,100.00
2022-09-10T13:10:28.156Z,100.00
2022-09-10T13:12:33.832Z,100.00
2022-09-10T13:14:46.881Z,100.00
2022-09-10T13:16:50.907Z,100.00
2022-09-10T13:18:57.210Z,100.00
2022-09-10T13:21:42.956Z,100.00
2022-09-10T13:23:48.943Z,100.00
2022-09-10T13:25:53.237Z,100.00
2022-09-10T13:27:58.109Z,100.00
2022-09-10T13:30:32.076Z,100.00
2022-09-10T13:32:47.586Z,100.00
2022-09-10T13:34:57.217Z,100.00
2022-09-10T13:37:06.705Z,100.00
2022-09-10T13:39:32.785Z,100.00
2022-09-10T13:41:42.195Z,100.00
2022-09-10T13:44:00.960Z,100.00
2022-09-10T13:46:08.023Z,100.00
2022-09-10T13:48:18.515Z,100.00
2022-09-10T13:50:25.091Z,100.00
2022-09-10T13:52:30.762Z,100.00
2022-09-10T13:54:36.675Z,100.00
2022-09-10T13:56:44.794Z,100.00
2022-09-10T13:58:50.957Z,100.00
2022-09-10T14:00:56.609Z,100.00
2022-09-10T14:03:01.692Z,100.00
2022-09-10T14:05:05.413Z,100.00
2022-09-10T14:07:17.191Z,100.00
2022-09-10T14:09:21.187Z,100.00
2022-09-10T14:11:25.183Z,100.00
2022-09-10T14:13:41.163Z,100.00
2022-09-10T14:15:46.155Z,100.00
2022-09-10T14:17:52.415Z,100.00
2022-09-10T14:20:00.999Z,100.00
2022-09-10T14:22:09.831Z,100.00
2022-09-10T14:24:32.657Z,100.00
2022-09-10T14:26:36.605Z,100.00
2022-09-10T14:28:51.711Z,100.00
2022-09-10T14:31:15.945Z,100.00
2022-09-10T14:33:27.914Z,100.00
2022-09-10T14:35:38.453Z,100.00
2022-09-10T14:37:42.870Z,100.00
2022-09-10T14:39:46.802Z,100.00
2022-09-10T14:42:09.114Z,100.00
2022-09-10T14:44:25.227Z,100.00
2022-09-10T14:46:47.564Z,100.00
2022-09-10T14:49:00.125Z,100.00
2022-09-10T14:51:23.155Z,100.00
2022-09-10T14:53:27.028Z,100.00
2022-09-10T14:55:31.744Z,100.00
2022-09-10T14:57:36.446Z,100.00
2022-09-10T14:59:41.174Z,100.00
2022-09-10T15:01:49.481Z,100.00
2022-09-10T15:03:53.281Z,100.00
2022-09-10T15:05:57.031Z,100.00
2022-09-10T15:08:00.702Z,100.00
2022-09-10T15:10:04.981Z,100.00
2022-09-10T15:12:38.046Z,100.00
2022-09-10T15:14:41.671Z,100.00
2022-09-10T15:16:45.597Z,100.00
2022-09-10T15:18:49.787Z,100.00
2022-09-10T15:20:54.022Z,100.00
2022-09-10T15:22:57.786Z,100.00
2022-09-10T15:25:16.373Z,100.00
2022-09-10T15:27:21.451Z,97.73
2022-09-10T15:29:28.148Z,98.67
2022-09-10T15:31:32.839Z,93.11
2022-09-10T15:33:37.127Z,93.07
2022-09-10T15:35:43.777Z,90.29
2022-09-10T15:37:47.673Z,86.62
2022-09-10T15:39:52.586Z,89.07
2022-09-10T15:41:56.506Z,88.42
2022-09-10T15:44:00.359Z,87.20
2022-09-10T15:46:04.371Z,81.97
2022-09-10T15:48:08.355Z,78.74
2022-09-10T15:50:12.744Z,81.51
2022-09-10T15:52:16.421Z,80.27
2022-09-10T15:54:20.969Z,79.73
2022-09-10T15:56:28.242Z,81.38
2022-09-10T15:58:32.330Z,76.42
2022-09-10T16:00:38.157Z,75.44
2022-09-10T16:02:43.150Z,77.50
2022-09-10T16:04:46.675Z,72.82
2022-09-10T16:06:50.558Z,72.63
2022-09-10T16:08:58.284Z,71.35
2022-09-10T16:11:08.614Z,69.48
2022-09-10T16:13:12.189Z,68.77
2022-09-10T16:15:15.767Z,69.98
2022-09-10T16:17:19.139Z,68.29
2022-09-10T16:19:22.590Z,65.35
2022-09-10T16:21:28.010Z,64.71
2022-09-10T16:23:34.717Z,67.23
2022-09-10T16:25:38.285Z,64.51
2022-09-10T16:27:43.471Z,67.40
2022-09-10T16:29:48.107Z,66.00
2022-09-10T16:31:51.384Z,66.65
2022-09-10T16:33:56.198Z,62.02
2022-09-10T16:36:04.811Z,62.67
2022-09-10T16:38:09.249Z,61.38
2022-09-10T16:40:19.924Z,60.80
2022-09-10T16:42:25.957Z,61.48
2022-09-10T16:44:31.376Z,59.02
2022-09-10T16:46:36.220Z,61.44
2022-09-10T16:48:41.534Z,58.92
2022-09-10T16:50:45.467Z,57.50
2022-09-10T16:52:50.036Z,57.16
2022-09-10T16:54:54.044Z,57.53
2022-09-10T16:57:02.774Z,60.52
2022-09-10T16:59:10.971Z,54.84
2022-09-10T17:01:14.734Z,56.55
2022-09-10T17:03:18.616Z,55.56
2022-09-10T17:05:23.680Z,56.13
2022-09-10T17:07:27.637Z,52.08
2022-09-10T17:09:31.273Z,53.31
2022-09-10T17:11:35.063Z,58.87
2022-09-10T17:13:38.876Z,54.42
2022-09-10T17:15:46.150Z,53.04
2022-09-10T17:17:50.675Z,52.34
2022-09-10T17:19:54.630Z,52.70
2022-09-10T17:21:58.363Z,52.04
2022-09-10T17:24:03.160Z,52.87
2022-09-10T17:26:10.640Z,51.06
2022-09-10T17:28:14.019Z,52.05
2022-09-10T17:30:20.405Z,50.52
2022-09-10T17:32:23.762Z,50.71
2022-09-10T17:34:29.047Z,48.51
2022-09-10T17:36:33.370Z,49.28
2022-09-10T17:38:37.049Z,52.46
2022-09-10T17:40:41.074Z,51.81
2022-09-10T17:42:46.401Z,46.72
2022-09-10T17:44:51.487Z,48.38
2022-09-10T17:46:56.427Z,48.75
2022-09-10T17:49:01.487Z,48.94
2022-09-10T17:51:06.706Z,47.42
2022-09-10T17:53:10.714Z,48.84
2022-09-10T17:55:14.686Z,54.20
2022-09-10T17:57:18.874Z,47.64
2022-09-10T17:59:23.210Z,48.42
2022-09-10T18:01:34.832Z,49.93
2022-09-10T18:03:38.521Z,45.38
2022-09-10T18:05:43.310Z,42.76
2022-09-10T18:07:47.175Z,45.85
2022-09-10T18:09:50.862Z,46.45
2022-09-10T18:11:56.524Z,43.62
2022-09-10T18:14:00.931Z,44.70
2022-09-10T18:16:12.792Z,42.16
2022-09-10T18:18:16.745Z,43.00
2022-09-10T18:20:21.107Z,43.75
2022-09-10T18:22:25.330Z,43.51
2022-09-10T18:24:29.516Z,42.77
2022-09-10T18:26:35.679Z,43.78
2022-09-10T18:28:39.520Z,43.38
2022-09-10T18:34:23.211Z,44.24
2022-09-10T18:36:29.724Z,43.89
2022-09-10T18:38:33.424Z,43.13
2022-09-10T18:40:38.101Z,41.99
2022-09-10T18:42:46.123Z,48.82
2022-09-10T18:44:50.337Z,42.72
2022-09-10T18:46:54.411Z,47.53
2022-09-10T18:48:59.570Z,45.04
2022-09-10T18:51:07.143Z,44.12
2022-09-10T18:53:10.886Z,39.72
2022-09-10T18:55:14.596Z,40.45
2022-09-10T18:57:18.377Z,45.84
2022-09-10T18:59:24.078Z,36.78
2022-09-10T19:01:32.030Z,36.31
2022-09-10T19:03:39.738Z,36.84
2022-09-10T19:05:46.754Z,37.81
2022-09-10T19:07:50.273Z,39.12
2022-09-10T19:09:53.873Z,37.62
2022-09-10T19:11:59.579Z,36.27
2022-09-10T19:14:05.540Z,39.70
2022-09-10T19:16:09.258Z,40.23
2022-09-10T19:18:13.124Z,40.97
2022-09-10T19:20:16.960Z,41.41
2022-09-10T19:22:20.845Z,41.45
2022-09-10T19:24:53.318Z,42.36
2022-09-10T19:26:54.859Z,41.53
2022-09-10T19:28:58.764Z,44.91
2022-09-10T19:31:04.401Z,37.71
2022-09-10T19:33:08.008Z,36.51
2022-09-10T19:35:12.631Z,37.39
2022-09-10T19:37:16.235Z,36.53
2022-09-10T19:39:20.078Z,36.97
2022-09-10T19:41:26.976Z,38.05
2022-09-10T19:43:30.744Z,34.65
2022-09-10T19:45:34.489Z,33.81
2022-09-10T19:47:38.143Z,36.82
2022-09-10T19:49:42.141Z,34.77
2022-09-10T19:51:45.557Z,35.36
2022-09-10T19:53:50.583Z,37.07
2022-09-10T19:55:54.334Z,36.18
2022-09-10T19:58:01.115Z,37.89
2022-09-10T20:00:05.066Z,37.70
2022-09-10T20:02:14.942Z,38.04
2022-09-10T20:04:18.520Z,38.06
2022-09-10T20:06:23.587Z,37.51
2022-09-10T20:08:26.976Z,37.68
2022-09-10T20:10:31.248Z,38.26
2022-09-10T20:12:34.900Z,39.79
2022-09-10T20:14:39.266Z,33.89
2022-09-10T20:16:44.009Z,33.54
2022-09-10T20:18:47.850Z,33.93
2022-09-10T20:20:52.196Z,33.83
2022-09-10T20:22:59.385Z,33.93
2022-09-10T20:25:02.913Z,34.35
2022-09-10T20:27:08.301Z,33.66
2022-09-10T20:29:13.415Z,34.46
2022-09-10T20:31:17.433Z,34.91
2022-09-10T20:33:21.527Z,35.34
2022-09-10T20:35:25.536Z,35.00
2022-09-10T20:37:28.927Z,35.45
2022-09-10T20:39:32.883Z,36.63
2022-09-10T20:41:36.566Z,37.59
2022-09-10T20:43:43.662Z,38.18
2022-09-10T20:45:47.769Z,38.83
2022-09-10T20:47:51.153Z,38.43
2022-09-10T20:49:54.665Z,36.27
2022-09-10T20:51:58.243Z,35.75
2022-09-10T20:54:02.645Z,36.03
2022-09-10T20:56:07.898Z,35.83
2022-09-10T20:58:11.868Z,36.85
2022-09-10T21:00:15.571Z,38.13
2022-09-10T21:02:19.380Z,35.47
2022-09-10T21:04:23.243Z,34.02
2022-09-10T21:06:28.060Z,36.99
2022-09-10T21:08:32.941Z,35.59
2022-09-10T21:10:40.696Z,34.56
2022-09-10T21:12:53.555Z,33.89
2022-09-10T21:14:56.902Z,32.03
2022-09-10T21:17:00.959Z,33.79
2022-09-10T21:19:05.924Z,33.45
2022-09-10T21:21:10.631Z,31.56
2022-09-10T21:23:14.314Z,30.60
2022-09-10T21:25:18.171Z,31.05
2022-09-10T21:27:21.680Z,31.93
2022-09-10T21:29:25.170Z,31.97
2022-09-10T21:31:32.490Z,33.56
2022-09-10T21:33:36.983Z,33.81
2022-09-10T21:35:40.414Z,35.65
2022-09-10T21:37:44.308Z,34.20
2022-09-10T21:39:48.662Z,36.23
2022-09-10T21:41:52.744Z,36.11
2022-09-10T21:43:56.226Z,35.61
2022-09-10T21:46:01.888Z,34.63
2022-09-10T21:48:05.426Z,33.50
2022-09-10T21:50:09.003Z,32.09
2022-09-10T21:52:12.415Z,33.74
2022-09-10T21:54:19.583Z,30.74
2022-09-10T21:56:25.770Z,31.27
2022-09-10T21:58:30.733Z,30.80
2022-09-10T22:00:34.084Z,28.71
2022-09-10T22:02:37.870Z,29.44
2022-09-10T22:04:41.228Z,30.34
2022-09-10T22:06:45.274Z,29.50
2022-09-10T22:08:49.631Z,28.56
2022-09-10T22:10:53.901Z,27.94
2022-09-10T22:13:01.026Z,27.97
2022-09-10T22:15:05.053Z,29.21
2022-09-10T22:17:08.703Z,27.64
2022-09-10T22:19:19.723Z,29.03
2022-09-10T22:21:25.489Z,28.28
2022-09-10T22:23:36.525Z,27.46
2022-09-10T22:25:42.979Z,26.96
2022-09-10T22:27:47.294Z,27.33
2022-09-10T22:29:52.568Z,26.98
2022-09-10T22:31:56.543Z,28.88
2022-09-10T22:34:07.244Z,27.39
2022-09-10T22:36:15.163Z,27.00
2022-09-10T22:38:21.800Z,27.15
2022-09-10T22:40:26.015Z,27.42
2022-09-10T22:42:31.711Z,28.54
2022-09-10T22:44:35.314Z,26.82
2022-09-10T22:46:41.342Z,28.33
2022-09-10T22:48:48.467Z,26.93
2022-09-10T22:50:52.004Z,27.52
2022-09-10T22:52:55.995Z,28.54
2022-09-10T22:54:59.946Z,28.22
2022-09-10T22:57:03.799Z,27.78
2022-09-10T22:59:08.150Z,28.10
2022-09-10T23:01:16.777Z,28.50
2022-09-10T23:03:21.932Z,29.84
2022-09-10T23:05:26.222Z,31.21
2022-09-10T23:07:29.974Z,31.16
2022-09-10T23:09:33.958Z,30.87
2022-09-10T23:11:41.078Z,31.43
2022-09-10T23:13:49.296Z,32.31
2022-09-10T23:15:53.643Z,31.11
2022-09-10T23:17:57.407Z,31.54
2022-09-10T23:20:01.430Z,32.10
2022-09-10T23:22:13.714Z,32.17
2022-09-10T23:24:18.307Z,32.90
2022-09-10T23:26:22.892Z,34.67
2022-09-10T23:28:29.345Z,36.10
2022-09-10T23:30:32.915Z,37.00
2022-09-10T23:32:36.240Z,36.60
2022-09-10T23:34:39.819Z,36.70
2022-09-10T23:36:47.283Z,38.14
2022-09-10T23:38:51.618Z,38.17
2022-09-10T23:40:55.467Z,38.07
2022-09-10T23:42:59.094Z,39.04
2022-09-10T23:45:02.413Z,39.67
2022-09-10T23:47:06.410Z,40.92
2022-09-10T23:49:09.913Z,41.12
2022-09-10T23:51:14.693Z,40.58
2022-09-10T23:53:19.142Z,41.07
2022-09-10T23:55:22.885Z,41.27
2022-09-10T23:57:26.908Z,42.69
2022-09-10T23:59:33.215Z,43.36
